Time;durP1;ratioP1;P1;durP2;ratioP2;P2;SDS_P1;SDS_P2;PMS_P1;PMS_P2;Temp;Humidity;BMP_temperature;BMP_pressure;BME280_temperature;BME280_humidity;BME280_pressure;Samples;Min_cycle;Max_cycle;Signal;HPM_P1;HPM_P2
2022/04/30 00:00:36;;;;;;;19.52;14.82;;;;;;;10.97;100.00;96760.28;5111281;27;20055;-46
2022/04/30 00:03:07;;;;;;;22.98;14.27;;;;;;;10.97;100.00;96763.75;5129539;27;20039;-50
2022/04/30 00:05:35;;;;;;;13.88;12.40;;;;;;;10.99;100.00;96759.19;5108302;28;20078;-51
2022/04/30 00:08:04;;;;;;;14.23;12.30;;;;;;;10.79;100.00;96757.50;5104606;28;20059;-53
2022/04/30 00:10:37;;;;;;;18.38;13.98;;;;;;;10.69;100.00;96754.88;5100163;28;20532;-49
2022/04/30 00:13:07;;;;;;;17.83;14.10;;;;;;;10.78;100.00;96754.06;5107507;28;20082;-54
2022/04/30 00:15:35;;;;;;;19.40;15.07;;;;;;;10.86;100.00;96756.00;5112578;27;20453;-44
2022/04/30 00:18:04;;;;;;;17.63;14.50;;;;;;;10.75;100.00;96756.13;5129836;27;20500;-48
2022/04/30 00:20:36;;;;;;;16.00;14.25;;;;;;;10.87;100.00;96757.66;5129221;27;20473;-46
2022/04/30 00:23:05;;;;;;;17.75;14.65;;;;;;;10.94;100.00;96753.47;5128066;27;20055;-50
2022/04/30 00:25:33;;;;;;;17.05;14.65;;;;;;;10.79;100.00;96752.25;5115456;27;20062;-44
2022/04/30 00:28:01;;;;;;;17.75;14.73;;;;;;;10.47;100.00;96750.69;5109275;27;20462;-45
2022/04/30 00:30:30;;;;;;;19.75;14.07;;;;;;;10.55;100.00;96756.09;5110083;27;20445;-45
2022/04/30 00:32:58;;;;;;;18.15;14.45;;;;;;;10.54;100.00;96743.91;5125056;27;20486;-46
2022/04/30 00:35:26;;;;;;;17.92;14.20;;;;;;;10.69;100.00;96753.06;5127769;27;20066;-53
2022/04/30 00:37:56;;;;;;;16.73;14.88;;;;;;;10.74;100.00;96749.19;5128217;27;20063;-44
2022/04/30 00:40:24;;;;;;;17.30;15.02;;;;;;;10.81;100.00;96745.88;5113218;27;20430;-45
2022/04/30 00:42:52;;;;;;;21.85;15.15;;;;;;;10.52;100.00;96739.72;5120686;27;20082;-49
2022/04/30 00:45:21;;;;;;;19.20;15.73;;;;;;;10.76;100.00;96744.59;5125460;27;20066;-50
2022/04/30 00:47:49;;;;;;;18.63;15.70;;;;;;;10.80;100.00;96743.34;5109692;28;20070;-50
2022/04/30 00:50:18;;;;;;;19.10;15.90;;;;;;;10.44;100.00;96749.16;5127755;27;20387;-49
2022/04/30 00:52:47;;;;;;;19.58;16.45;;;;;;;10.62;100.00;96746.66;5128532;27;20059;-50
2022/04/30 00:55:21;;;;;;;19.73;16.50;;;;;;;10.70;100.00;96743.34;5128433;27;20063;-46
2022/04/30 00:57:51;;;;;;;19.70;16.48;;;;;;;10.60;100.00;96735.44;5137243;27;20071;-45
2022/04/30 01:00:19;;;;;;;;;;;;;;;10.52;100.00;96740.56;5126671;27;20082;-45
2022/04/30 01:02:48;;;;;;;19.23;16.05;;;;;;;10.39;100.00;96745.25;5127073;27;19922;-43
2022/04/30 01:05:16;;;;;;;23.10;16.58;;;;;;;10.20;100.00;96746.84;5108643;27;20075;-50
2022/04/30 01:07:44;;;;;;;20.05;16.63;;;;;;;10.41;100.00;96746.78;5102937;28;20083;-48
2022/04/30 01:10:13;;;;;;;21.95;17.80;;;;;;;10.02;100.00;96743.22;5113506;27;20101;-49
2022/04/30 01:12:43;;;;;;;22.17;17.38;;;;;;;10.14;100.00;96750.03;5126598;27;20042;-44
2022/04/30 01:15:12;;;;;;;20.60;17.17;;;;;;;10.10;100.00;96751.28;5125631;27;20075;-49
2022/04/30 01:17:42;;;;;;;22.65;18.02;;;;;;;9.98;100.00;96747.09;5098473;28;20059;-45
2022/04/30 01:20:11;;;;;;;22.90;18.42;;;;;;;10.14;100.00;96739.50;5103363;27;20077;-49
2022/04/30 01:22:59;;;;;;;21.20;17.73;;;;;;;10.08;100.00;96740.03;5098027;28;20055;-48
2022/04/30 01:25:27;;;;;;;26.63;18.35;;;;;;;9.95;100.00;96739.44;5119221;27;20059;-50
2022/04/30 01:27:56;;;;;;;22.80;18.35;;;;;;;10.06;100.00;96746.41;5123410;27;20074;-48
2022/04/30 01:30:24;;;;;;;22.08;18.45;;;;;;;10.03;100.00;96734.34;5123296;27;20070;-49
2022/04/30 01:38:27;;;;;;;22.98;18.73;;;;;;;9.61;100.00;96731.81;5108080;27;20077;-49
2022/04/30 01:40:56;;;;;;;22.08;17.73;;;;;;;9.50;100.00;96729.28;5109145;27;20055;-47
2022/04/30 01:43:24;;;;;;;20.50;17.05;;;;;;;9.31;100.00;96731.81;5118415;27;20066;-44
2022/04/30 01:45:53;;;;;;;24.67;18.35;;;;;;;9.39;100.00;96729.34;5123709;27;20493;-55
2022/04/30 01:48:22;;;;;;;22.30;17.30;;;;;;;9.38;100.00;96727.69;5124980;27;20528;-52
2022/04/30 01:50:50;;;;;;;22.35;17.80;;;;;;;9.69;100.00;96718.81;5126163;27;20075;-49
2022/04/30 01:53:18;;;;;;;25.48;18.33;;;;;;;9.41;100.00;96720.38;5126079;27;20160;-49
2022/04/30 01:55:48;;;;;;;25.55;17.58;;;;;;;9.41;100.00;96722.16;5125557;27;20153;-55
2022/04/30 01:58:16;;;;;;;21.23;17.77;;;;;;;9.49;100.00;96719.69;5113563;27;20067;-49
2022/04/30 02:00:45;;;;;;;22.73;16.90;;;;;;;9.36;100.00;96722.56;5102116;28;20075;-44
2022/04/30 02:03:14;;;;;;;18.88;16.75;;;;;;;9.13;100.00;96716.63;5108082;27;20090;-50
2022/04/30 02:05:42;;;;;;;21.75;17.02;;;;;;;9.01;100.00;96717.63;5105026;28;20113;-44
2022/04/30 02:08:13;;;;;;;22.38;17.45;;;;;;;8.96;100.00;96710.13;5102000;28;20063;-46
2022/04/30 02:10:42;;;;;;;;;;;;;;;9.30;100.00;96711.72;5107045;28;20450;-49
2022/04/30 02:13:11;;;;;;;21.05;17.30;;;;;;;9.12;100.00;96706.19;5106152;28;19950;-50
2022/04/30 02:15:41;;;;;;;26.15;18.58;;;;;;;8.84;100.00;96699.78;5111545;27;20147;-51
2022/04/30 02:18:13;;;;;;;24.13;18.27;;;;;;;8.79;100.00;96692.31;5122063;27;20083;-46
2022/04/30 02:20:45;;;;;;;25.58;17.75;;;;;;;9.19;100.00;96702.94;5104509;28;20083;-53
2022/04/30 02:23:15;;;;;;;23.92;18.92;;;;;;;9.28;100.00;96694.25;5124089;27;20085;-46
2022/04/30 02:25:44;;;;;;;22.35;17.23;;;;;;;9.27;100.00;96689.97;5111239;27;20473;-50
2022/04/30 02:28:14;;;;;;;21.98;17.20;;;;;;;9.26;100.00;96692.75;5105569;27;20055;-48
2022/04/30 02:30:43;;;;;;;22.75;17.92;;;;;;;9.18;100.00;96692.53;5108916;27;20600;-47
2022/04/30 02:33:12;;;;;;;22.02;16.77;;;;;;;9.01;100.00;96694.78;5109751;27;20087;-48
2022/04/30 02:35:43;;;;;;;19.73;16.50;;;;;;;8.99;100.00;96690.63;5133642;27;20079;-50
2022/04/30 02:38:12;;;;;;;21.45;17.45;;;;;;;8.84;100.00;96689.28;5133016;27;20070;-49
2022/04/30 02:40:42;;;;;;;21.33;18.42;;;;;;;9.09;100.00;96685.44;5133649;27;20035;-51
2022/04/30 02:43:12;;;;;;;24.02;17.92;;;;;;;9.06;100.00;96680.44;5130732;27;20077;-46
2022/04/30 02:45:42;;;;;;;22.77;18.48;;;;;;;8.66;100.00;96679.34;5134143;27;20065;-44
2022/04/30 02:48:12;;;;;;;21.88;19.13;;;;;;;8.91;100.00;96677.28;5132978;27;20074;-44
2022/04/30 02:50:41;;;;;;;22.30;18.48;;;;;;;8.93;100.00;96667.47;5134464;27;20067;-48
2022/04/30 02:53:09;;;;;;;23.92;18.80;;;;;;;8.95;100.00;96668.19;5131098;27;20063;-52
2022/04/30 02:55:37;;;;;;;22.98;19.23;;;;;;;8.99;100.00;96673.06;5133352;27;20069;-48
2022/04/30 03:00:53;;;;;;;26.25;19.70;;;;;;;8.86;100.00;96668.97;5110091;27;20094;-46
2022/04/30 03:03:23;;;;;;;24.98;19.40;;;;;;;8.89;100.00;96660.81;5110745;27;20082;-44
2022/04/30 03:05:53;;;;;;;25.08;18.80;;;;;;;8.99;100.00;96664.34;5113561;27;20091;-57
2022/04/30 03:08:22;;;;;;;25.13;18.40;;;;;;;9.04;100.00;96662.13;5108934;28;20051;-46
2022/04/30 03:10:53;;;;;;;24.93;18.13;;;;;;;8.92;100.00;96661.38;5110579;27;20075;-53
2022/04/30 03:13:22;;;;;;;;;;;;;;;8.55;100.00;96658.38;5123193;27;20708;-52
2022/04/30 03:15:51;;;;;;;20.38;17.17;;;;;;;8.50;100.00;96652.69;5128950;27;19982;-43
2022/04/30 03:23:55;;;;;;;24.10;20.23;;;;;;;8.78;100.00;96645.94;5129912;27;20081;-49
2022/04/30 03:26:26;;;;;;;24.45;19.67;;;;;;;8.73;100.00;96641.06;5110593;27;20066;-50
2022/04/30 03:28:55;;;;;;;23.58;18.83;;;;;;;8.59;100.00;96632.66;5109444;27;20075;-46
2022/04/30 03:31:24;;;;;;;25.15;19.73;;;;;;;8.49;100.00;96622.91;5124173;27;20063;-51
2022/04/30 03:33:53;;;;;;;27.25;20.88;;;;;;;8.49;100.00;96625.53;5118998;27;20469;-50
2022/04/30 03:36:22;;;;;;;24.98;20.35;;;;;;;8.57;100.00;96632.81;5102564;27;20088;-48
2022/04/30 03:38:50;;;;;;;25.48;21.02;;;;;;;8.70;100.00;96622.91;5106287;27;20459;-49
2022/04/30 03:41:18;;;;;;;24.95;20.52;;;;;;;8.73;100.00;96627.91;5102025;27;20134;-53
2022/04/30 03:43:46;;;;;;;25.50;20.77;;;;;;;8.74;100.00;96629.59;5105191;27;20064;-49
2022/04/30 03:46:15;;;;;;;26.52;20.85;;;;;;;8.79;100.00;96632.66;5104096;27;20070;-50
2022/04/30 03:48:44;;;;;;;25.38;20.02;;;;;;;8.64;100.00;96630.50;5107146;27;20068;-48
2022/04/30 03:51:14;;;;;;;22.77;18.60;;;;;;;8.36;100.00;96634.53;5106719;28;20083;-44
2022/04/30 03:53:46;;;;;;;20.45;17.83;;;;;;;8.15;100.00;96635.31;5105435;28;20083;-46
2022/04/30 03:56:16;;;;;;;23.45;19.17;;;;;;;8.27;100.00;96631.72;5119220;27;20078;-45
2022/04/30 03:58:46;;;;;;;25.50;19.45;;;;;;;8.47;100.00;96630.09;5124248;27;20074;-43
2022/04/30 04:01:15;;;;;;;24.83;18.60;;;;;;;8.37;100.00;96628.34;5125457;27;20067;-46
2022/04/30 04:03:43;;;;;;;26.08;19.40;;;;;;;8.36;100.00;96629.28;5125841;27;20073;-43
2022/04/30 04:06:13;;;;;;;24.33;18.92;;;;;;;8.51;100.00;96634.13;5126064;27;20076;-43
2022/04/30 04:08:43;;;;;;;27.05;19.42;;;;;;;8.69;100.00;96638.81;5123047;27;20078;-53
2022/04/30 04:11:13;;;;;;;27.63;20.95;;;;;;;8.65;100.00;96637.41;5107869;27;20070;-49
2022/04/30 04:19:13;;;;;;;26.27;20.13;;;;;;;8.77;100.00;96642.50;5118044;27;20070;-51
2022/04/30 04:21:41;;;;;;;24.90;20.25;;;;;;;8.54;100.00;96649.66;5130135;27;20058;-45
2022/04/30 04:26:56;;;;;;;22.20;19.70;;;;;;;8.94;100.00;96643.66;5128137;27;20224;-45
2022/04/30 04:29:24;;;;;;;25.17;19.08;;;;;;;9.00;100.00;96650.22;5105837;27;20539;-49
2022/04/30 04:31:53;;;;;;;22.10;18.67;;;;;;;8.77;100.00;96658.25;5107636;28;20074;-45
2022/04/30 04:34:21;;;;;;;21.48;18.55;;;;;;;8.64;100.00;96657.63;5118834;27;20070;-45
2022/04/30 04:36:49;;;;;;;23.67;18.88;;;;;;;8.80;100.00;96659.78;5133517;27;20058;-51
2022/04/30 04:39:19;;;;;;;24.25;19.67;;;;;;;8.63;100.00;96663.81;5127597;27;20521;-50
2022/04/30 04:41:47;;;;;;;24.50;19.33;;;;;;;8.64;100.00;96664.66;5128042;27;20330;-44
2022/04/30 04:44:15;;;;;;;25.75;19.27;;;;;;;9.06;100.00;96660.22;5107814;27;20673;-48
2022/04/30 04:46:43;;;;;;;23.92;20.77;;;;;;;8.92;100.00;96661.38;5106794;27;20056;-47
2022/04/30 04:49:12;;;;;;;28.42;20.33;;;;;;;9.52;100.00;96651.00;5106625;27;20074;-49
2022/04/30 04:51:40;;;;;;;23.73;19.92;;;;;;;9.57;100.00;96661.16;5107459;28;20063;-50
2022/04/30 04:54:08;;;;;;;23.67;19.23;;;;;;;9.87;100.00;96653.16;5107851;27;20075;-50
2022/04/30 04:56:39;;;;;;;24.70;20.15;;;;;;;10.00;100.00;96660.81;5106251;28;20078;-48
2022/04/30 04:59:08;;;;;;;;;;;;;;;10.03;100.00;96652.66;5103236;27;20423;-46
2022/04/30 05:01:36;;;;;;;25.98;20.20;;;;;;;9.92;100.00;96661.50;5102678;27;20390;-54
2022/04/30 05:04:05;;;;;;;24.42;19.75;;;;;;;9.78;100.00;96671.59;5113843;27;21929;-47
2022/04/30 05:06:33;;;;;;;25.80;20.20;;;;;;;10.22;100.00;96665.88;5117900;27;20146;-45
2022/04/30 05:09:02;;;;;;;23.98;19.23;;;;;;;10.35;100.00;96660.34;5107220;27;20090;-52
2022/04/30 05:11:30;;;;;;;25.42;19.08;;;;;;;10.01;100.00;96670.38;5107354;28;20255;-44
2022/04/30 05:14:00;;;;;;;24.20;19.45;;;;;;;10.25;100.00;96677.09;5123450;27;20065;-48
2022/04/30 05:16:28;;;;;;;23.23;19.00;;;;;;;10.49;100.00;96676.72;5129163;27;20078;-47
2022/04/30 05:18:56;;;;;;;22.08;18.50;;;;;;;10.74;100.00;96677.97;5119081;27;20105;-44
2022/04/30 05:21:25;;;;;;;21.88;18.23;;;;;;;10.85;100.00;96672.53;5125698;27;20059;-53
2022/04/30 05:23:53;;;;;;;24.17;18.02;;;;;;;11.06;100.00;96673.19;5122251;27;20105;-52
2022/04/30 05:26:22;;;;;;;22.52;19.10;;;;;;;11.17;100.00;96664.28;5106708;27;20082;-51
2022/04/30 05:28:51;;;;;;;21.73;19.40;;;;;;;11.32;100.00;96668.13;5115737;27;20071;-53
2022/04/30 05:31:20;;;;;;;22.65;18.65;;;;;;;11.51;100.00;96674.31;5126632;27;20070;-50
2022/04/30 05:33:49;;;;;;;24.93;19.13;;;;;;;11.71;100.00;96678.53;5129478;27;20465;-47
2022/04/30 05:36:17;;;;;;;21.38;19.05;;;;;;;11.82;100.00;96675.69;5129769;27;20051;-48
2022/04/30 05:38:47;;;;;;;21.55;19.15;;;;;;;11.95;100.00;96674.56;5130454;27;20102;-45
2022/04/30 05:41:16;;;;;;;23.55;19.05;;;;;;;11.96;100.00;96671.75;5129791;27;20063;-45
2022/04/30 05:43:44;;;;;;;23.33;19.20;;;;;;;12.02;100.00;96673.81;5130044;27;20070;-47
2022/04/30 05:46:13;;;;;;;26.85;19.75;;;;;;;12.16;100.00;96672.47;5129717;27;20067;-49
2022/04/30 05:48:43;;;;;;;23.58;19.92;;;;;;;12.34;100.00;96673.31;5129160;27;20066;-50
2022/04/30 05:51:11;;;;;;;24.77;19.10;;;;;;;12.44;100.00;96669.78;5129545;27;20101;-54
2022/04/30 05:53:40;;;;;;;20.95;18.63;;;;;;;12.62;100.00;96669.78;5129894;27;20083;-51
2022/04/30 05:56:08;;;;;;;24.40;18.40;;;;;;;12.71;100.00;96664.41;5129802;27;20473;-48
2022/04/30 05:58:36;;;;;;;21.88;18.55;;;;;;;12.57;100.00;96665.78;5125930;27;20070;-51
2022/04/30 06:01:05;;;;;;;20.38;18.25;;;;;;;12.73;100.00;96662.44;5124889;27;20074;-50
2022/04/30 06:03:34;;;;;;;24.33;18.13;;;;;;;12.79;100.00;96660.97;5128885;27;20074;-52
2022/04/30 06:06:04;;;;;;;22.00;18.13;;;;;;;12.70;100.00;96667.22;5129532;27;20097;-45
2022/04/30 06:08:32;;;;;;;23.17;19.23;;;;;;;12.62;100.00;96669.78;5128726;27;20114;-51
2022/04/30 06:11:01;;;;;;;22.33;19.20;;;;;;;12.39;100.00;96682.59;5129284;27;20070;-50
2022/04/30 06:13:29;;;;;;;22.90;18.85;;;;;;;12.62;100.00;96683.00;5128933;27;20063;-48
2022/04/30 06:15:57;;;;;;;20.50;17.48;;;;;;;12.61;100.00;96684.00;5131061;27;20069;-47
2022/04/30 06:18:26;;;;;;;19.63;17.52;;;;;;;12.43;100.00;96690.09;5129188;27;20070;-45
2022/04/30 06:20:55;;;;;;;21.00;18.55;;;;;;;12.20;100.00;96691.50;5129394;27;20102;-50
2022/04/30 06:23:24;;;;;;;21.75;19.45;;;;;;;12.79;100.00;96698.03;5127201;27;20039;-51
2022/04/30 06:25:53;;;;;;;23.80;18.88;;;;;;;12.59;100.00;96703.50;5128188;28;20066;-45
2022/04/30 06:28:21;;;;;;;25.05;19.02;;;;;;;12.93;100.00;96701.94;5128197;27;20615;-47
2022/04/30 06:30:49;;;;;;;22.58;19.58;;;;;;;13.12;100.00;96698.31;5120094;28;20082;-52
2022/04/30 06:33:17;;;;;;;23.38;18.95;;;;;;;13.71;100.00;96689.56;5122764;28;20470;-53
2022/04/30 06:35:45;;;;;;;20.52;17.95;;;;;;;13.90;100.00;96688.50;5129838;28;20126;-53
2022/04/30 06:38:15;;;;;;;20.85;18.63;;;;;;;13.94;100.00;96687.19;5128677;27;20055;-46
2022/04/30 06:40:46;;;;;;;21.80;18.42;;;;;;;14.30;100.00;96678.19;5121097;28;20070;-46
2022/04/30 06:43:14;;;;;;;21.63;19.08;;;;;;;14.39;100.00;96683.34;5126490;28;20031;-45
2022/04/30 06:45:43;;;;;;;21.63;17.52;;;;;;;14.85;100.00;96678.44;5122579;28;20129;-52
2022/04/30 06:48:16;;;;;;;20.08;16.67;;;;;;;14.90;100.00;96683.25;5128742;27;20079;-51
2022/04/30 06:50:45;;;;;;;17.83;15.95;;;;;;;14.91;100.00;96677.78;5128891;28;20039;-52
2022/04/30 06:58:53;;;;;;;21.67;16.52;;;;;;;15.26;100.00;96685.56;5122756;27;20473;-53
2022/04/30 07:01:37;;;;;;;18.77;16.65;;;;;;;15.73;100.00;96682.19;5128567;28;20110;-48
2022/04/30 07:04:07;;;;;;;18.10;16.02;;;;;;;15.87;100.00;96684.94;5123897;28;20143;-47
2022/04/30 07:06:35;;;;;;;18.45;15.82;;;;;;;15.49;100.00;96680.38;5128738;28;20105;-54
2022/04/30 07:09:05;;;;;;;19.10;16.13;;;;;;;15.85;100.00;96678.94;5128329;28;20082;-51
2022/04/30 07:11:35;;;;;;;20.45;16.38;;;;;;;15.50;100.00;96677.53;5129103;28;20082;-51
2022/04/30 07:14:03;;;;;;;21.27;16.20;;;;;;;16.10;100.00;96665.53;5131304;27;20067;-46
2022/04/30 07:16:31;;;;;;;21.38;17.27;;;;;;;16.29;100.00;96675.75;5132712;27;20079;-48
2022/04/30 07:19:00;;;;;;;31.63;20.35;;;;;;;16.26;100.00;96675.28;5131535;27;20099;-53
2022/04/30 07:21:30;;;;;;;21.00;15.45;;;;;;;16.83;100.00;96670.44;5131724;27;20536;-53
2022/04/30 07:23:59;;;;;;;23.53;18.13;;;;;;;16.65;100.00;96666.38;5132668;27;20043;-50
2022/04/30 07:26:28;;;;;;;18.42;16.40;;;;;;;16.91;100.00;96674.03;5132174;27;20058;-48
2022/04/30 07:28:57;;;;;;;59.28;37.13;;;;;;;16.82;100.00;96668.75;5124249;27;20540;-51
2022/04/30 07:31:25;;;;;;;52.63;35.77;;;;;;;16.98;100.00;96662.50;5132194;27;20070;-50
2022/04/30 07:33:54;;;;;;;35.13;26.40;;;;;;;17.23;98.20;96665.75;5132097;27;20082;-48
2022/04/30 07:36:22;;;;;;;61.83;39.58;;;;;;;17.56;94.34;96652.94;5132595;27;20066;-54
2022/04/30 07:38:51;;;;;;;55.42;36.90;;;;;;;17.32;100.00;96654.00;5132534;27;20087;-55
2022/04/30 07:41:19;;;;;;;20.70;17.60;;;;;;;17.20;100.00;96655.44;5131817;27;20079;-51
2022/04/30 07:43:47;;;;;;;70.43;52.50;;;;;;;17.99;90.89;96652.28;5131920;27;20080;-47
2022/04/30 07:46:17;;;;;;;20.15;17.15;;;;;;;17.71;92.06;96657.44;5131292;27;20078;-49
2022/04/30 07:48:45;;;;;;;19.98;16.15;;;;;;;17.81;87.42;96659.84;5128664;27;20073;-53
2022/04/30 07:51:19;;;;;;;17.80;15.40;;;;;;;17.86;92.09;96660.09;5129719;27;20075;-56
2022/04/30 07:53:47;;;;;;;18.00;15.75;;;;;;;17.95;88.31;96667.00;5132116;27;20071;-46
2022/04/30 07:56:15;;;;;;;17.13;15.30;;;;;;;18.50;79.21;96653.06;5131838;27;20464;-49
2022/04/30 07:58:44;;;;;;;19.77;16.30;;;;;;;18.18;81.49;96666.91;5123311;27;20078;-50
2022/04/30 08:01:13;;;;;;;16.77;15.07;;;;;;;18.25;82.10;96668.63;5130477;27;20078;-53
2022/04/30 08:03:44;;;;;;;20.27;16.03;;;;;;;18.26;82.40;96659.59;5129581;27;20082;-50
2022/04/30 08:06:29;;;;;;;18.63;15.50;;;;;;;18.41;79.20;96656.03;5127059;27;20067;-46
2022/04/30 08:08:57;;;;;;;17.35;15.40;;;;;;;18.28;76.77;96651.41;5128593;27;20086;-50
2022/04/30 08:11:26;;;;;;;21.95;16.05;;;;;;;18.45;78.07;96657.34;5131295;27;20071;-46
2022/04/30 08:13:54;;;;;;;17.90;16.08;;;;;;;18.66;78.51;96660.03;5131185;27;20058;-51
2022/04/30 08:16:28;;;;;;;21.38;15.80;;;;;;;18.56;75.64;96664.84;5126587;27;20457;-47
2022/04/30 08:18:58;;;;;;;17.55;15.70;;;;;;;19.07;73.20;96664.75;5127498;27;20171;-50
2022/04/30 08:21:26;;;;;;;17.83;15.23;;;;;;;18.84;68.90;96664.13;5130929;27;20059;-49
2022/04/30 08:23:55;;;;;;;16.88;15.07;;;;;;;19.07;68.19;96664.75;5131379;27;20079;-51
2022/04/30 08:26:23;;;;;;;16.70;14.70;;;;;;;18.87;69.28;96671.75;5128657;27;20055;-55
2022/04/30 08:28:51;;;;;;;17.90;14.98;;;;;;;18.96;67.88;96665.28;5125476;27;20074;-51
2022/04/30 08:31:19;;;;;;;16.00;14.30;;;;;;;18.90;70.93;96668.72;5130892;27;20090;-51
2022/04/30 08:33:48;;;;;;;17.33;15.50;;;;;;;19.85;67.48;96670.84;5130305;27;20539;-49
2022/04/30 08:36:35;;;;;;;16.90;15.10;;;;;;;19.88;61.80;96677.66;5131428;27;20618;-51
2022/04/30 08:39:03;;;;;;;18.98;15.27;;;;;;;19.35;65.30;96680.81;5130888;27;20086;-50
2022/04/30 08:41:32;;;;;;;16.23;14.63;;;;;;;19.34;64.63;96680.97;5131250;27;20090;-47
2022/04/30 08:44:00;;;;;;;16.13;13.70;;;;;;;19.42;67.04;96679.00;5125416;27;20055;-49
2022/04/30 08:46:28;;;;;;;15.30;13.50;;;;;;;18.42;69.55;96687.09;5130864;27;20067;-44
2022/04/30 08:48:56;;;;;;;14.27;12.85;;;;;;;18.22;66.83;96694.88;5130676;27;20066;-54
2022/04/30 08:51:25;;;;;;;14.60;12.90;;;;;;;18.02;78.98;96683.94;5130212;27;20074;-54
2022/04/30 08:53:54;;;;;;;16.13;13.38;;;;;;;17.50;84.15;96685.66;5124502;27;20071;-52
2022/04/30 08:56:23;;;;;;;15.03;13.53;;;;;;;17.69;93.02;96689.63;5130593;27;20541;-53
2022/04/30 08:58:51;;;;;;;13.90;12.45;;;;;;;17.45;85.76;96689.88;5118008;27;20491;-56
2022/04/30 09:01:20;;;;;;;15.93;13.70;;;;;;;17.90;81.14;96694.25;5130808;27;20063;-50
2022/04/30 09:03:48;;;;;;;13.18;11.75;;;;;;;17.65;79.41;96690.16;5130388;27;20036;-49
2022/04/30 09:06:18;;;;;;;14.02;12.73;;;;;;;17.77;83.77;96689.56;5130585;27;20091;-50
2022/04/30 09:08:49;;;;;;;12.50;10.68;;;;;;;17.16;73.22;96696.81;5130551;27;20089;-51
2022/04/30 09:11:27;;;;;;;13.70;11.90;;;;;;;18.30;73.28;96692.06;5123731;27;20074;-48
2022/04/30 09:13:57;;;;;;;14.85;12.73;;;;;;;18.40;67.13;96681.09;5123048;27;20074;-46
2022/04/30 09:16:25;;;;;;;14.27;12.75;;;;;;;18.11;73.24;96696.16;5130453;27;20078;-52
2022/04/30 09:18:54;;;;;;;13.75;11.98;;;;;;;18.12;76.55;96692.47;5129767;27;20293;-50
2022/04/30 09:21:23;;;;;;;13.50;11.80;;;;;;;17.95;77.45;96685.69;5129608;27;20521;-55
2022/04/30 09:23:51;;;;;;;14.95;13.45;;;;;;;18.00;88.09;96686.81;5130453;27;20528;-50
2022/04/30 09:26:21;;;;;;;14.88;12.93;;;;;;;17.90;87.00;96688.09;5130102;27;20539;-53
2022/04/30 09:28:49;;;;;;;13.43;11.80;;;;;;;17.36;93.12;96691.78;5126079;27;20462;-51
2022/04/30 09:31:20;;;;;;;16.65;13.80;;;;;;;18.02;85.90;96692.75;5126549;27;20067;-54
2022/04/30 09:33:59;;;;;;;14.45;12.77;;;;;;;17.84;88.13;96688.84;5129434;27;20078;-55
2022/04/30 09:39:14;;;;;;;16.58;13.88;;;;;;;17.88;87.72;96696.28;5129249;27;20101;-49
2022/04/30 09:41:44;;;;;;;16.00;13.65;;;;;;;18.20;86.95;96689.72;5130155;27;20066;-52
2022/04/30 09:44:13;;;;;;;15.20;13.60;;;;;;;18.30;81.80;96689.41;5129585;27;20078;-48
2022/04/30 09:46:42;;;;;;;16.38;12.05;;;;;;;17.96;92.99;96696.19;5131608;27;20093;-56
2022/04/30 09:54:44;;;;;;;15.02;12.48;;;;;;;18.67;80.01;96685.72;5129673;27;20062;-46
2022/04/30 09:57:16;;;;;;;15.52;13.48;;;;;;;19.00;76.69;96695.13;5123291;27;20079;-49
2022/04/30 09:59:45;;;;;;;14.52;12.23;;;;;;;18.91;75.03;96687.22;5120272;27;20086;-52
2022/04/30 10:02:15;;;;;;;15.15;13.55;;;;;;;18.54;77.96;96692.75;5129744;27;20100;-47
2022/04/30 10:04:45;;;;;;;14.13;12.30;;;;;;;18.83;72.47;96691.88;5129425;27;20051;-51
2022/04/30 10:07:14;;;;;;;;;;;;;;;18.15;83.17;96691.28;5128873;27;20067;-51
2022/04/30 10:09:45;;;;;;;13.13;9.63;;;;;;;17.62;84.77;96694.03;5123911;27;19951;-47
2022/04/30 10:12:20;;;;;;;17.25;12.65;;;;;;;17.73;87.83;96684.75;5129445;27;20079;-47
2022/04/30 10:14:58;;;;;;;14.27;11.52;;;;;;;17.90;90.31;96685.44;5129547;27;20082;-46
2022/04/30 10:17:29;;;;;;;16.05;13.35;;;;;;;18.60;83.60;96678.66;5129087;27;20070;-54
2022/04/30 10:19:58;;;;;;;;;;;;;;;17.76;90.71;96692.44;5129414;27;20695;-48
2022/04/30 10:22:27;;;;;;;14.63;11.90;;;;;;;18.14;90.25;96685.13;5129108;27;19951;-53
2022/04/30 10:24:57;;;;;;;16.15;9.82;;;;;;;17.79;86.36;96687.53;5128747;27;20090;-47
2022/04/30 10:27:39;;;;;;;12.82;11.57;;;;;;;17.39;89.80;96683.44;5129248;28;20529;-51
2022/04/30 10:30:18;;;;;;;14.15;11.82;;;;;;;17.54;96.87;96683.44;5120320;28;20087;-47
2022/04/30 10:32:55;;;;;;;15.95;12.38;;;;;;;18.11;84.60;96690.84;5129602;28;20091;-55
2022/04/30 10:35:31;;;;;;;14.20;12.70;;;;;;;17.60;90.81;96690.72;5124677;28;20429;-51
2022/04/30 10:38:08;;;;;;;15.65;13.95;;;;;;;18.09;88.87;96690.19;5125432;28;20062;-53
2022/04/30 10:40:42;;;;;;;14.88;13.27;;;;;;;17.64;89.44;96700.00;5129111;28;20490;-47
2022/04/30 10:43:31;;;;;;;17.27;13.70;;;;;;;18.19;90.39;96692.56;5128940;28;20062;-54
2022/04/30 10:46:00;;;;;;;15.33;13.37;;;;;;;17.79;100.00;96697.41;5129040;28;20062;-48
2022/04/30 10:48:29;;;;;;;15.45;13.85;;;;;;;18.55;91.69;96694.41;5132294;27;20707;-50
2022/04/30 10:51:06;;;;;;;15.10;13.48;;;;;;;18.96;76.48;96692.81;5133144;27;20074;-50
2022/04/30 10:53:35;;;;;;;16.83;12.90;;;;;;;18.45;77.12;96697.41;5132606;27;20665;-48
2022/04/30 10:56:05;;;;;;;16.65;13.80;;;;;;;18.99;77.33;96683.56;5133018;27;20532;-48
2022/04/30 10:58:36;;;;;;;16.10;13.57;;;;;;;19.25;80.44;96695.53;5121911;27;20055;-45
2022/04/30 11:01:11;;;;;;;13.95;12.15;;;;;;;18.72;75.95;96696.72;5132724;27;20077;-47
2022/04/30 11:03:42;;;;;;;15.70;12.68;;;;;;;17.86;79.76;96705.47;5126427;27;20106;-51
2022/04/30 11:06:10;;;;;;;;;;;;;;;17.72;87.51;96707.94;5133035;27;20071;-50
2022/04/30 11:08:38;;;;;;;15.13;12.65;;;;;;;17.79;82.43;96703.56;5133308;27;20368;-53
2022/04/30 11:11:08;;;;;;;17.45;12.57;;;;;;;17.61;94.42;96704.88;5132583;27;20078;-48
2022/04/30 11:13:37;;;;;;;17.33;14.20;;;;;;;17.30;93.80;96704.00;5132580;27;20082;-53
2022/04/30 11:16:14;;;;;;;19.30;12.73;;;;;;;17.15;100.00;96700.47;5132865;27;20078;-44
2022/04/30 11:18:42;;;;;;;16.60;14.75;;;;;;;16.57;100.00;96693.91;5132517;27;20082;-49
2022/04/30 11:21:10;;;;;;;17.15;15.07;;;;;;;16.63;100.00;96693.19;5132800;27;20087;-52
2022/04/30 11:23:38;;;;;;;17.00;14.80;;;;;;;16.51;100.00;96699.91;5133086;27;20098;-48
2022/04/30 11:26:24;;;;;;;17.15;14.88;;;;;;;16.41;100.00;96692.16;5131484;27;20059;-47
2022/04/30 11:28:54;;;;;;;17.40;14.43;;;;;;;16.42;100.00;96691.16;5126996;27;20075;-50
2022/04/30 11:31:22;;;;;;;18.63;14.47;;;;;;;16.57;100.00;96689.38;5131880;27;20081;-52
2022/04/30 11:33:50;;;;;;;18.35;15.13;;;;;;;16.77;100.00;96683.63;5128957;27;20484;-51
2022/04/30 11:36:19;;;;;;;17.15;15.20;;;;;;;16.69;100.00;96684.50;5129886;27;20101;-47
2022/04/30 11:38:55;;;;;;;17.10;14.52;;;;;;;16.52;100.00;96683.78;5132446;27;20525;-53
2022/04/30 11:41:23;;;;;;;17.35;15.55;;;;;;;16.75;100.00;96693.63;5127302;27;20520;-54
2022/04/30 11:44:02;;;;;;;18.50;14.93;;;;;;;16.75;100.00;96690.97;5132288;27;20075;-50
2022/04/30 11:46:31;;;;;;;16.42;14.70;;;;;;;16.63;100.00;96687.03;5132202;27;20082;-50
2022/04/30 11:48:59;;;;;;;14.55;12.70;;;;;;;16.23;100.00;96689.75;5131857;27;20446;-52
2022/04/30 11:51:46;;;;;;;18.20;14.05;;;;;;;16.52;100.00;96693.59;5131709;27;20062;-51
2022/04/30 11:54:17;;;;;;;14.63;12.93;;;;;;;16.41;100.00;96686.81;5132464;27;20086;-53
2022/04/30 11:57:10;;;;;;;16.52;14.10;;;;;;;16.43;100.00;96692.00;5127103;27;20058;-47
2022/04/30 11:59:41;;;;;;;16.95;14.30;;;;;;;16.43;100.00;96692.00;5126075;27;20086;-49
2022/04/30 12:02:14;;;;;;;17.75;14.52;;;;;;;16.60;100.00;96686.38;5124522;27;20565;-50
2022/04/30 12:04:43;;;;;;;15.30;13.35;;;;;;;16.35;100.00;96688.38;5129264;27;20075;-52